Portada
METAR-TAF:

METAR-TAF

Aeroports :

Padang, Indonèsia

latitud: 00-47-12S, longitud: 100-16-50E, altitud: 5 m

METAR: manca

Hora: 16:36 (09:36 UTC)

Pronòstic

L'informe es va fer fa 4 hores i 36 minuts, a les 05:00 UTC
Pronòstic vàlid del 30 a les 06 UTC al 01 a les 06 UTC
Vent 7 kt del Sud-Oest
Visibilitat 10 km o més
Escasses núvols a una alçada de 2000 ft
Evolucionant progressivament
l' 30 a les 14 UTC al 30 a les 16 UTC
Vent 5 kt del Nord/Nord-Oest
Núvols disperses a una alçada de 2000 ft

TAF: WIEE 300500Z 3006/0106 23007KT 9999 FEW020 BECMG 3014/3016 33005KT SCT020

Observacions i pronòstics meteorològics de més de 4000 aeroports (METAR i TAF).

Les estacions disponibles són els punts grocs i vermells al mapa.

Posi el ratolí al punt desitjat per veure el nom de l'estació.

Feu clic per veure les observacions i els pronòstics meteorològics.

Per canviar el mapa: feu clic els botons verds amb una creu de color negre per apropar; al botó verd amb un guió per allunyar la imatge; o en les fletxes verdes per a mapes adjacents.


METAR-TAF: